Time;durP1;ratioP1;P1;durP2;ratioP2;P2;SDS_P1;SDS_P2;PMS_P1;PMS_P2;Temp;Humidity;BMP_temperature;BMP_pressure;BME280_temperature;BME280_humidity;BME280_pressure;Samples;Min_cycle;Max_cycle;Signal;HPM_P1;HPM_P2
2023/02/02 00:01:43;;;;;;;0.10;0.10;;;4.90;99.90;;;;;;6199567;23;20084;-91
2023/02/02 00:10:12;;;;;;;0.10;0.10;;;5.00;99.90;;;;;;6212089;23;20057;-86
2023/02/02 02:48:22;;;;;;;0.10;0.10;;;4.80;99.90;;;;;;6212450;23;20080;-92
2023/02/02 03:09:28;;;;;;;0.10;0.10;;;5.00;99.90;;;;;;6197120;23;20019;-92
2023/02/02 04:14:06;;;;;;;0.10;0.10;;;;;;;;;;6203741;23;20003;-94
2023/02/02 05:56:15;;;;;;;0.10;0.10;;;;;;;;;;6211792;23;20013;-93
2023/02/02 07:47:26;;;;;;;0.10;0.10;;;;;;;;;;6213491;23;20053;-94
2023/02/02 07:49:52;;;;;;;0.10;0.10;;;;;;;;;;6187536;23;20044;-90
2023/02/02 07:52:18;;;;;;;0.10;0.10;;;;;;;;;;6186971;23;19994;-93
2023/02/02 07:54:45;;;;;;;0.10;0.10;;;;;;;;;;6186864;23;20025;-96
2023/02/02 07:57:12;;;;;;;0.10;0.10;;;;;;;;;;6183397;23;20057;-94
2023/02/02 07:59:38;;;;;;;0.10;0.10;;;;;;;;;;6182965;23;20048;-92
2023/02/02 08:02:04;;;;;;;0.00;0.00;;;;;;;;;;6179232;23;20005;-91
2023/02/02 08:04:32;;;;;;;0.05;0.05;;;;;;;;;;6175359;23;20297;-91
2023/02/02 08:06:59;;;;;;;0.10;0.10;;;;;;;;;;6177236;23;19998;-93
2023/02/02 08:09:25;;;;;;;0.03;0.03;;;;;;;;;;6178834;23;20001;-93
2023/02/02 08:11:51;;;;;;;0.10;0.10;;;;;;;;;;6175450;23;20040;-91
2023/02/02 08:14:17;;;;;;;0.00;0.00;;;;;;;;;;6171442;23;20059;-93
2023/02/02 08:16:43;;;;;;;0.10;0.10;;;;;;;;;;6179916;23;20009;-92
2023/02/02 08:19:09;;;;;;;0.10;0.10;;;5.80;99.90;;;;;;6179642;23;20115;-92
2023/02/02 08:21:35;;;;;;;0.10;0.10;;;;;;;;;;6180577;23;20020;-91
2023/02/02 08:24:01;;;;;;;0.10;0.10;;;;;;;;;;6179162;23;20032;-93
2023/02/02 08:26:29;;;;;;;0.10;0.10;;;6.00;99.90;;;;;;6177044;23;20028;-91
2023/02/02 08:28:57;;;;;;;0.10;0.10;;;6.00;99.90;;;;;;6181005;23;20012;-92
2023/02/02 08:31:25;;;;;;;0.10;0.10;;;5.90;99.90;;;;;;6181528;23;20005;-92
2023/02/02 08:33:53;;;;;;;0.10;0.10;;;;;;;;;;6181773;23;20057;-92
2023/02/02 08:36:21;;;;;;;0.10;0.10;;;5.90;99.90;;;;;;6181625;23;20009;-91
2023/02/02 08:38:47;;;;;;;0.10;0.10;;;;;;;;;;6182857;23;19993;-92
2023/02/02 08:41:16;;;;;;;0.00;0.00;;;6.00;99.90;;;;;;6180884;23;20033;-92
2023/02/02 08:43:42;;;;;;;0.00;0.00;;;;;;;;;;6181273;23;20004;-92
2023/02/02 08:46:10;;;;;;;0.10;0.10;;;6.10;99.90;;;;;;6180960;23;20060;-92
2023/02/02 08:48:36;;;;;;;0.10;0.10;;;;;;;;;;6180972;23;20000;-91
2023/02/02 08:51:03;;;;;;;0.10;0.10;;;6.20;99.90;;;;;;6179048;23;20001;-92
2023/02/02 08:53:29;;;;;;;0.10;0.10;;;;;;;;;;6180169;23;19989;-92
2023/02/02 08:56:06;;;;;;;0.10;0.10;;;6.20;99.90;;;;;;6181744;23;19996;-92
2023/02/02 08:58:32;;;;;;;0.10;0.10;;;;;;;;;;6181106;23;20005;-92
2023/02/02 09:01:12;;;;;;;0.00;0.00;;;6.20;99.90;;;;;;6179768;23;20009;-91
2023/02/02 09:03:39;;;;;;;0.10;0.10;;;;;;;;;;6180520;23;20060;-92
2023/02/02 09:06:13;;;;;;;0.10;0.10;;;6.30;99.90;;;;;;6179935;23;20001;-92
2023/02/02 09:08:40;;;;;;;0.10;0.10;;;;;;;;;;6180615;23;20039;-91
2023/02/02 09:11:10;;;;;;;0.10;0.10;;;6.40;99.90;;;;;;6179850;23;19993;-93
2023/02/02 09:13:37;;;;;;;0.10;0.10;;;6.40;99.90;;;;;;6181438;23;20012;-91
2023/02/02 09:16:05;;;;;;;0.10;0.10;;;6.40;99.90;;;;;;6182139;23;20009;-92
2023/02/02 09:18:30;;;;;;;0.10;0.10;;;;;;;;;;6180132;23;20032;-92
2023/02/02 09:21:05;;;;;;;0.10;0.10;;;6.40;99.90;;;;;;6180664;23;20008;-91
2023/02/02 09:23:32;;;;;;;0.10;0.10;;;6.50;99.90;;;;;;6181390;23;19993;-92
2023/02/02 09:26:20;;;;;;;0.10;0.10;;;6.50;99.90;;;;;;6206329;23;20016;-92
2023/02/02 09:28:55;;;;;;;0.10;0.10;;;6.50;99.90;;;;;;6185168;23;19989;-92
2023/02/02 09:31:21;;;;;;;0.10;0.10;;;;;;;;;;6186364;23;20004;-94
2023/02/02 09:33:47;;;;;;;0.10;0.10;;;;;;;;;;6186391;23;20016;-92
2023/02/02 09:36:15;;;;;;;0.08;0.08;;;6.80;99.90;;;;;;6181960;23;20028;-92
2023/02/02 09:38:43;;;;;;;0.10;0.10;;;6.70;99.90;;;;;;6179682;23;20000;-92
2023/02/02 09:41:16;;;;;;;0.10;0.10;;;6.80;99.90;;;;;;6179701;23;20005;-91
2023/02/02 09:44:21;;;;;;;0.10;0.10;;;6.80;99.90;;;;;;6179605;23;20012;-91
2023/02/02 09:47:15;;;;;;;0.10;0.10;;;6.80;99.90;;;;;;6180270;23;20012;-91
2023/02/02 09:50:11;;;;;;;0.10;0.10;;;6.90;99.90;;;;;;6180314;23;20068;-91
2023/02/02 09:52:44;;;;;;;0.10;0.10;;;6.90;99.90;;;;;;6180155;23;20004;-91
2023/02/02 09:55:22;;;;;;;0.10;0.10;;;7.00;99.90;;;;;;6180417;23;19989;-91
2023/02/02 09:57:52;;;;;;;0.10;0.10;;;7.00;99.90;;;;;;6178552;23;20016;-92
2023/02/02 10:00:35;;;;;;;0.10;0.10;;;7.00;99.90;;;;;;6179607;23;20017;-91
2023/02/02 10:03:16;;;;;;;0.10;0.10;;;7.00;99.90;;;;;;6178746;23;20319;-91
2023/02/02 10:06:00;;;;;;;0.10;0.10;;;6.90;99.90;;;;;;6179540;23;20001;-91
2023/02/02 10:08:34;;;;;;;0.10;0.10;;;6.90;99.90;;;;;;6181932;23;19989;-91
2023/02/02 10:11:04;;;;;;;0.10;0.10;;;7.00;99.90;;;;;;6181926;23;20056;-91
2023/02/02 10:13:36;;;;;;;0.10;0.10;;;7.00;99.90;;;;;;6181761;23;20024;-92
2023/02/02 10:16:11;;;;;;;0.10;0.10;;;6.90;99.90;;;;;;6181845;23;20025;-92
2023/02/02 10:18:58;;;;;;;0.10;0.10;;;7.10;99.90;;;;;;6183706;23;20008;-91
2023/02/02 10:21:50;;;;;;;0.10;0.10;;;6.90;99.90;;;;;;6183543;23;19997;-90
2023/02/02 10:24:24;;;;;;;0.10;0.10;;;7.30;99.90;;;;;;6182853;23;20056;-91
2023/02/02 10:26:54;;;;;;;0.10;0.10;;;7.10;99.90;;;;;;6182435;23;20016;-90
2023/02/02 10:29:30;;;;;;;;;;;7.10;99.90;;;;;;6183028;23;20023;-90
2023/02/02 10:32:13;;;;;;;0.05;0.05;;;7.10;99.90;;;;;;6183430;23;19891;-90
2023/02/02 10:34:49;;;;;;;0.10;0.10;;;7.10;99.90;;;;;;6183659;23;20005;-91
2023/02/02 10:37:34;;;;;;;0.10;0.10;;;7.10;99.90;;;;;;6209857;23;20005;-91
2023/02/02 10:40:26;;;;;;;0.10;0.10;;;7.10;99.90;;;;;;6183446;23;20001;-91
2023/02/02 10:46:00;;;;;;;0.10;0.10;;;7.20;99.90;;;;;;6207575;23;20012;-89
2023/02/02 10:48:33;;;;;;;0.10;0.10;;;7.10;99.90;;;;;;6180737;23;20005;-90
2023/02/02 10:51:03;;;;;;;0.10;0.10;;;7.10;99.90;;;;;;6180530;23;20049;-92
2023/02/02 10:53:29;;;;;;;;;;;7.00;99.90;;;;;;6180952;23;20009;-92
2023/02/02 10:56:05;;;;;;;0.10;0.10;;;7.40;99.90;;;;;;6181800;23;19944;-91
2023/02/02 10:58:43;;;;;;;0.10;0.10;;;7.40;99.90;;;;;;6177556;23;20016;-92
2023/02/02 11:01:10;;;;;;;0.10;0.10;;;;;;;;;;6178567;23;20009;-92
2023/02/02 11:03:37;;;;;;;0.10;0.10;;;7.40;99.90;;;;;;6174669;23;20009;-89
2023/02/02 11:08:59;;;;;;;0.10;0.10;;;7.70;99.90;;;;;;6185797;23;20012;-91
2023/02/02 11:11:38;;;;;;;0.10;0.10;;;7.80;99.90;;;;;;6160771;23;20055;-90
2023/02/02 11:14:07;;;;;;;0.15;0.15;;;7.70;99.90;;;;;;6160294;23;20005;-91
2023/02/02 11:16:42;;;;;;;0.10;0.10;;;7.80;99.90;;;;;;6160502;23;20028;-92
2023/02/02 11:19:18;;;;;;;0.10;0.10;;;7.80;99.90;;;;;;6158099;23;20040;-91
2023/02/02 11:21:55;;;;;;;0.10;0.10;;;7.80;99.90;;;;;;6160594;23;20001;-92
2023/02/02 11:24:28;;;;;;;0.10;0.10;;;7.80;99.90;;;;;;6160156;23;19997;-91
2023/02/02 11:27:12;;;;;;;0.10;0.10;;;7.80;99.90;;;;;;6160512;23;20005;-91
2023/02/02 11:29:38;;;;;;;0.10;0.10;;;;;;;;;;6159082;23;20009;-91
2023/02/02 11:32:27;;;;;;;0.10;0.10;;;7.80;99.90;;;;;;6160603;23;20016;-91
2023/02/02 11:35:17;;;;;;;0.10;0.10;;;7.90;99.90;;;;;;6157220;23;20040;-90
2023/02/02 11:37:54;;;;;;;0.10;0.10;;;7.90;99.90;;;;;;6158861;23;20005;-92
2023/02/02 11:40:26;;;;;;;0.10;0.10;;;7.90;99.90;;;;;;6157932;23;20012;-91
2023/02/02 11:42:54;;;;;;;0.10;0.10;;;8.00;99.90;;;;;;6157707;23;20005;-90
2023/02/02 11:45:42;;;;;;;0.10;0.10;;;8.00;99.90;;;;;;6157015;23;20005;-91
2023/02/02 11:48:17;;;;;;;0.10;0.10;;;8.10;99.90;;;;;;6154731;23;20009;-91
2023/02/02 11:50:52;;;;;;;0.10;0.10;;;8.20;99.90;;;;;;6157443;23;20001;-91
2023/02/02 11:53:28;;;;;;;0.10;0.10;;;8.20;99.90;;;;;;6155859;23;20020;-91
2023/02/02 11:55:55;;;;;;;0.10;0.10;;;7.30;99.90;;;;;;6155572;23;20465;-90
2023/02/02 11:58:26;;;;;;;0.10;0.10;;;8.20;99.90;;;;;;6154654;23;20434;-91
2023/02/02 12:00:58;;;;;;;0.10;0.10;;;8.20;99.90;;;;;;6156519;23;20059;-91
2023/02/02 12:03:37;;;;;;;0.10;0.10;;;8.20;99.90;;;;;;6156307;23;20005;-90
2023/02/02 12:06:25;;;;;;;0.10;0.10;;;8.20;99.90;;;;;;6156554;23;20005;-92
2023/02/02 12:09:00;;;;;;;0.10;0.10;;;8.20;99.90;;;;;;6157975;23;20115;-91
2023/02/02 12:12:06;;;;;;;0.10;0.10;;;8.20;99.90;;;;;;6156429;23;20462;-92
2023/02/02 12:15:02;;;;;;;0.10;0.10;;;8.20;99.90;;;;;;6157126;23;20009;-91
2023/02/02 12:17:29;;;;;;;0.10;0.10;;;;;;;;;;6155999;23;20430;-89
2023/02/02 12:20:30;;;;;;;0.10;0.10;;;8.30;99.90;;;;;;6158897;23;20001;-90
2023/02/02 12:23:28;;;;;;;0.10;0.10;;;8.30;99.90;;;;;;6158584;23;20047;-91
2023/02/02 12:26:08;;;;;;;0.10;0.10;;;8.30;99.90;;;;;;6158737;23;20009;-90
2023/02/02 12:28:43;;;;;;;;;;;8.40;99.90;;;;;;6159533;23;20000;-90
2023/02/02 12:31:21;;;;;;;0.10;0.10;;;8.40;99.90;;;;;;6158925;23;19957;-89
2023/02/02 12:34:10;;;;;;;0.10;0.10;;;8.40;99.90;;;;;;6159124;23;20734;-90
2023/02/02 12:36:58;;;;;;;0.10;0.10;;;8.40;99.90;;;;;;6158362;23;20009;-90
2023/02/02 12:39:42;;;;;;;0.10;0.10;;;8.40;99.90;;;;;;6157845;23;20366;-91
2023/02/02 12:42:17;;;;;;;0.10;0.10;;;8.50;99.90;;;;;;6158966;23;20088;-91
2023/02/02 12:45:09;;;;;;;0.10;0.10;;;8.50;99.90;;;;;;6158647;23;20396;-91
2023/02/02 12:47:47;;;;;;;0.10;0.10;;;8.60;99.90;;;;;;6158946;23;20059;-91
2023/02/02 12:50:42;;;;;;;0.10;0.10;;;8.60;99.90;;;;;;6159373;23;20005;-91
2023/02/02 12:53:40;;;;;;;0.10;0.10;;;8.60;99.90;;;;;;6159096;23;20051;-91
2023/02/02 12:56:36;;;;;;;0.10;0.10;;;8.70;99.90;;;;;;6158646;23;20009;-89
2023/02/02 12:59:09;;;;;;;0.00;0.00;;;8.60;99.90;;;;;;6184956;23;20013;-90
2023/02/02 13:02:03;;;;;;;0.00;0.00;;;8.60;99.90;;;;;;6157455;23;20089;-89
2023/02/02 13:04:28;;;;;;;0.10;0.10;;;;;;;;;;6156383;23;20017;-89
2023/02/02 13:07:19;;;;;;;0.10;0.10;;;8.40;99.90;;;;;;6158429;23;20318;-89
2023/02/02 13:09:59;;;;;;;0.10;0.10;;;8.20;99.90;;;;;;6157486;23;20004;-90
2023/02/02 13:12:26;;;;;;;0.10;0.10;;;;;;;;;;6158599;23;20036;-91
2023/02/02 13:14:56;;;;;;;0.00;0.00;;;8.30;99.90;;;;;;6159073;23;20067;-89
2023/02/02 13:17:43;;;;;;;0.10;0.10;;;8.30;99.90;;;;;;6156429;23;20009;-90
2023/02/02 13:20:36;;;;;;;0.10;0.10;;;8.30;99.90;;;;;;6157394;23;20338;-90
2023/02/02 13:23:14;;;;;;;0.10;0.10;;;8.30;99.90;;;;;;6181265;23;20000;-90
2023/02/02 13:25:46;;;;;;;0.10;0.10;;;8.20;99.90;;;;;;6155619;23;20004;-91
2023/02/02 13:28:36;;;;;;;0.10;0.10;;;8.30;99.90;;;;;;6155669;23;20005;-92
2023/02/02 13:31:09;;;;;;;0.10;0.10;;;8.30;99.90;;;;;;6155951;23;20008;-90
2023/02/02 13:33:36;;;;;;;0.10;0.10;;;8.30;99.90;;;;;;6155169;23;19997;-89
2023/02/02 13:36:13;;;;;;;0.10;0.10;;;8.20;99.90;;;;;;6157560;23;20009;-90
2023/02/02 13:38:41;;;;;;;0.10;0.10;;;;;;;;;;6155449;23;20536;-90
2023/02/02 13:41:13;;;;;;;0.10;0.10;;;8.10;99.90;;;;;;6183499;23;20323;-89
2023/02/02 13:43:42;;;;;;;0.10;0.10;;;8.10;99.90;;;;;;6182440;23;20048;-91
2023/02/02 13:46:18;;;;;;;0.10;0.10;;;8.00;99.90;;;;;;6183151;23;20001;-91
2023/02/02 13:49:09;;;;;;;0.10;0.10;;;8.00;99.90;;;;;;6151424;23;20001;-92
2023/02/02 13:52:05;;;;;;;0.10;0.10;;;7.90;99.90;;;;;;6153639;23;20088;-91
2023/02/02 13:55:08;;;;;;;0.10;0.10;;;7.90;99.90;;;;;;6154419;23;19997;-92
2023/02/02 13:57:55;;;;;;;0.10;0.10;;;8.00;99.90;;;;;;6156135;23;20032;-92
2023/02/02 23:31:52;;;;;;;0.10;0.10;;;8.40;99.90;;;;;;6199569;23;20033;-91
2023/02/02 23:34:59;;;;;;;0.10;0.10;;;8.40;99.90;;;;;;6173807;23;20005;-91
2023/02/02 23:37:28;;;;;;;0.00;0.00;;;8.30;99.90;;;;;;6199620;23;20013;-92
2023/02/02 23:39:56;;;;;;;0.10;0.10;;;;;;;;;;6171759;23;20004;-91
2023/02/02 23:42:24;;;;;;;0.10;0.10;;;8.40;99.90;;;;;;6171790;23;20084;-92
2023/02/02 23:54:15;;;;;;;0.10;0.10;;;8.40;99.90;;;;;;6199187;23;20029;-91
2023/02/02 23:56:41;;;;;;;0.10;0.10;;;;;;;;;;6172513;23;20001;-91
2023/02/02 23:59:07;;;;;;;0.10;0.10;;;;;;;;;;6169186;23;20001;-91
